Time;durP1;ratioP1;P1;durP2;ratioP2;P2;SDS_P1;SDS_P2;PMS_P1;PMS_P2;Temp;Humidity;BMP_temperature;BMP_pressure;BME280_temperature;BME280_humidity;BME280_pressure;Samples;Min_cycle;Max_cycle;Signal;HPM_P1;HPM_P2
2023/12/06 00:01:49;;;;;;;66.00;41.95;;;1.40;99.90;;;;;;4999337;28;20112;-86
2023/12/06 00:04:14;;;;;;;71.53;43.03;;;1.30;99.90;;;;;;4996667;28;20226;-87
2023/12/06 00:06:40;;;;;;;66.78;43.50;;;1.50;99.90;;;;;;4998474;28;20037;-87
2023/12/06 00:09:06;;;;;;;69.38;43.72;;;1.30;99.90;;;;;;4993720;28;20628;-86
2023/12/06 00:11:32;;;;;;;69.43;43.60;;;1.20;99.90;;;;;;4996904;28;20106;-87
2023/12/06 00:13:57;;;;;;;64.30;42.17;;;1.20;99.90;;;;;;5014661;28;20496;-85
2023/12/06 00:16:23;;;;;;;66.85;43.08;;;1.30;99.90;;;;;;5002435;28;20523;-86
2023/12/06 00:18:49;;;;;;;67.72;42.38;;;1.50;99.90;;;;;;5000648;28;20077;-87
2023/12/06 00:21:15;;;;;;;67.20;42.33;;;1.50;99.90;;;;;;5013157;28;20128;-86
2023/12/06 00:23:41;;;;;;;70.10;43.47;;;1.40;99.90;;;;;;5019286;28;20615;-86
2023/12/06 00:26:07;;;;;;;68.72;43.33;;;1.50;99.90;;;;;;4997611;28;20048;-87
2023/12/06 00:28:33;;;;;;;74.38;44.63;;;1.60;99.90;;;;;;5001374;28;20033;-87
2023/12/06 00:30:59;;;;;;;75.32;44.90;;;1.50;99.90;;;;;;5033754;28;20485;-87
2023/12/06 00:33:24;;;;;;;72.15;45.08;;;1.30;99.90;;;;;;5001677;28;20074;-87
2023/12/06 00:35:50;;;;;;;70.07;44.22;;;1.30;99.90;;;;;;5014398;28;20038;-87
2023/12/06 00:38:16;;;;;;;75.50;44.72;;;1.50;99.90;;;;;;4996651;28;20041;-86
2023/12/06 00:40:45;;;;;;;77.40;46.00;;;1.60;99.90;;;;;;5029498;28;20044;-87
2023/12/06 00:43:10;;;;;;;73.82;44.55;;;1.50;99.90;;;;;;5005653;28;20041;-86
2023/12/06 00:45:36;;;;;;;75.65;45.53;;;1.60;99.90;;;;;;4998695;28;20350;-87
2023/12/06 00:48:02;;;;;;;76.65;45.67;;;1.40;99.90;;;;;;5017013;28;20029;-87
2023/12/06 00:50:28;;;;;;;78.53;46.20;;;1.50;99.90;;;;;;4998756;28;20049;-87
2023/12/06 00:52:54;;;;;;;77.50;46.75;;;1.40;99.90;;;;;;5003685;28;20033;-86
2023/12/06 00:55:19;;;;;;;82.93;47.45;;;1.40;99.90;;;;;;4993449;28;20053;-87
2023/12/06 00:57:45;;;;;;;87.32;47.05;;;1.40;99.90;;;;;;5010905;28;20037;-86
2023/12/06 01:00:12;;;;;;;81.20;47.30;;;1.50;99.90;;;;;;5002295;28;20044;-87
2023/12/06 01:02:41;;;;;;;76.50;47.35;;;1.40;99.90;;;;;;4999926;28;20076;-86
2023/12/06 01:05:06;;;;;;;83.43;46.53;;;1.70;99.90;;;;;;5016975;28;20140;-87
2023/12/06 01:07:32;;;;;;;81.15;45.63;;;1.40;99.90;;;;;;4999066;28;20219;-87
2023/12/06 01:09:58;;;;;;;74.93;45.40;;;1.70;99.90;;;;;;4999628;28;20041;-87
2023/12/06 01:12:24;;;;;;;87.40;49.08;;;1.40;99.90;;;;;;4997199;28;20814;-87
2023/12/06 01:14:49;;;;;;;82.57;49.10;;;1.60;99.90;;;;;;4998773;28;20045;-87
2023/12/06 01:17:15;;;;;;;82.57;48.22;;;1.70;99.90;;;;;;5013076;28;20207;-86
2023/12/06 01:19:41;;;;;;;81.93;47.22;;;1.50;99.90;;;;;;5004787;28;20436;-87
2023/12/06 01:22:06;;;;;;;87.38;48.40;;;1.70;99.90;;;;;;4999516;28;20053;-87
2023/12/06 01:24:32;;;;;;;76.82;45.33;;;1.70;99.90;;;;;;4996512;28;20042;-87
2023/12/06 01:26:58;;;;;;;80.22;47.78;;;1.40;99.90;;;;;;4997150;28;20038;-87
2023/12/06 01:29:23;;;;;;;87.35;47.30;;;1.70;99.90;;;;;;5013019;28;20033;-86
2023/12/06 01:31:49;;;;;;;86.65;47.28;;;1.50;99.90;;;;;;5011583;28;20420;-87
2023/12/06 01:34:15;;;;;;;86.75;48.35;;;1.70;99.90;;;;;;4998184;28;20037;-87
2023/12/06 01:36:41;;;;;;;82.78;45.92;;;1.60;99.90;;;;;;5000921;28;20441;-87
2023/12/06 01:39:08;;;;;;;77.97;45.88;;;1.50;99.90;;;;;;5004174;28;20037;-87
2023/12/06 01:41:33;;;;;;;84.80;46.70;;;1.70;99.90;;;;;;5012098;28;20052;-86
2023/12/06 01:43:59;;;;;;;88.65;46.58;;;1.70;99.90;;;;;;5028406;28;20042;-88
2023/12/06 01:46:25;;;;;;;83.63;46.97;;;1.70;99.90;;;;;;5001236;28;20309;-87
2023/12/06 01:48:52;;;;;;;85.70;45.67;;;1.50;99.90;;;;;;5014165;28;20164;-86
2023/12/06 01:51:19;;;;;;;80.75;44.53;;;1.50;99.90;;;;;;5013660;28;20119;-86
2023/12/06 01:53:45;;;;;;;82.25;45.67;;;1.70;99.90;;;;;;5047416;28;20041;-87
2023/12/06 01:56:12;;;;;;;93.15;50.00;;;1.50;99.90;;;;;;5004252;28;20037;-86
2023/12/06 01:58:38;;;;;;;89.43;45.92;;;1.70;99.90;;;;;;4995971;28;20041;-86
2023/12/06 02:01:05;;;;;;;86.88;46.78;;;1.50;99.90;;;;;;5002999;28;20048;-88
2023/12/06 02:03:34;;;;;;;79.82;44.97;;;1.50;99.90;;;;;;5002555;28;20113;-87
2023/12/06 02:06:06;;;;;;;78.43;44.42;;;1.70;99.90;;;;;;4996454;28;20128;-86
2023/12/06 02:08:34;;;;;;;81.10;45.55;;;1.60;99.90;;;;;;5029117;28;20037;-87
2023/12/06 02:10:59;;;;;;;75.32;45.13;;;1.50;99.90;;;;;;4998042;28;20052;-86
2023/12/06 02:13:26;;;;;;;78.07;43.97;;;1.70;99.90;;;;;;4995692;28;20037;-87
2023/12/06 02:15:52;;;;;;;81.32;44.45;;;1.50;99.90;;;;;;5000971;28;20090;-87
2023/12/06 02:18:19;;;;;;;72.60;43.33;;;1.70;99.90;;;;;;4999112;28;20041;-87
2023/12/06 02:20:45;;;;;;;77.03;42.10;;;1.70;99.90;;;;;;4997439;28;20447;-86
2023/12/06 02:23:11;;;;;;;75.93;42.17;;;1.60;99.90;;;;;;5041935;28;20053;-86
2023/12/06 02:25:37;;;;;;;73.85;41.22;;;1.50;99.90;;;;;;5000061;28;20072;-86
2023/12/06 02:28:03;;;;;;;66.75;41.13;;;1.50;99.90;;;;;;5001845;28;20045;-86
2023/12/06 02:30:29;;;;;;;67.70;40.88;;;1.70;99.90;;;;;;5044400;28;20121;-87
2023/12/06 02:32:55;;;;;;;72.88;41.30;;;1.80;99.90;;;;;;5002804;28;20499;-88
2023/12/06 02:35:33;;;;;;;66.78;41.00;;;1.60;99.90;;;;;;5011560;28;20048;-86
2023/12/06 02:38:01;;;;;;;70.60;39.58;;;1.60;99.90;;;;;;5014043;28;20114;-88
2023/12/06 02:40:29;;;;;;;62.22;39.95;;;1.60;99.90;;;;;;5000822;28;20033;-87
2023/12/06 02:42:55;;;;;;;58.33;36.90;;;1.60;99.90;;;;;;5029691;28;20113;-87
2023/12/06 02:45:20;;;;;;;59.72;38.92;;;1.80;99.90;;;;;;5001471;28;20129;-88
2023/12/06 02:47:46;;;;;;;60.40;37.85;;;1.90;99.90;;;;;;5013362;28;20038;-87
2023/12/06 02:50:12;;;;;;;60.90;37.90;;;1.80;99.90;;;;;;4998612;28;20084;-87
2023/12/06 02:52:38;;;;;;;57.22;36.70;;;1.70;99.90;;;;;;5013401;28;20072;-87
2023/12/06 02:55:04;;;;;;;57.63;37.50;;;1.90;99.90;;;;;;4994453;28;20436;-88
2023/12/06 02:57:30;;;;;;;56.05;36.20;;;1.80;99.90;;;;;;5028612;28;20045;-87
2023/12/06 02:59:56;;;;;;;59.83;35.65;;;1.80;99.90;;;;;;4997697;28;20128;-87
2023/12/06 03:02:21;;;;;;;52.38;34.28;;;1.70;99.90;;;;;;4996962;28;20124;-87
2023/12/06 03:04:47;;;;;;;52.10;35.80;;;2.00;99.90;;;;;;4995569;28;20387;-86
2023/12/06 03:07:13;;;;;;;52.78;34.53;;;1.80;99.90;;;;;;4995359;28;20496;-87
2023/12/06 03:09:39;;;;;;;48.83;33.22;;;1.90;99.90;;;;;;4998019;28;20051;-88
2023/12/06 03:12:07;;;;;;;50.13;34.42;;;1.90;99.90;;;;;;4999382;28;20083;-87
2023/12/06 03:14:33;;;;;;;49.25;34.15;;;2.00;99.90;;;;;;4995347;28;20034;-86
2023/12/06 03:16:59;;;;;;;48.88;33.58;;;1.90;99.90;;;;;;4999471;28;20045;-88
2023/12/06 03:19:24;;;;;;;51.85;35.42;;;1.90;99.90;;;;;;5008769;28;20044;-87
2023/12/06 03:21:50;;;;;;;48.35;33.60;;;2.00;99.90;;;;;;5000923;28;20064;-87
2023/12/06 03:24:16;;;;;;;49.60;33.75;;;1.70;99.90;;;;;;4997224;28;20049;-87
2023/12/06 03:26:42;;;;;;;49.13;32.28;;;1.80;99.90;;;;;;5008770;28;20049;-87
2023/12/06 03:29:07;;;;;;;52.28;34.95;;;1.70;99.90;;;;;;5013592;28;20107;-87
2023/12/06 03:31:33;;;;;;;50.22;33.42;;;1.90;99.90;;;;;;5008774;28;20102;-87
2023/12/06 03:33:59;;;;;;;47.85;33.42;;;1.80;99.90;;;;;;5016093;28;20046;-87
2023/12/06 03:36:25;;;;;;;49.10;33.67;;;1.70;99.90;;;;;;4997968;28;20064;-87
2023/12/06 03:38:51;;;;;;;49.72;34.40;;;1.70;99.90;;;;;;5015629;28;20551;-85
2023/12/06 03:41:19;;;;;;;46.00;32.75;;;1.70;99.90;;;;;;5000579;28;20034;-86
2023/12/06 03:43:45;;;;;;;46.88;33.45;;;1.80;99.90;;;;;;4999622;28;20073;-86
2023/12/06 03:46:11;;;;;;;48.75;31.75;;;1.90;99.90;;;;;;4994379;28;20069;-87
2023/12/06 03:48:36;;;;;;;47.10;32.50;;;1.90;99.90;;;;;;5002584;28;20042;-86
2023/12/06 03:51:02;;;;;;;45.67;32.38;;;1.80;99.90;;;;;;4995437;28;20084;-86
2023/12/06 03:53:28;;;;;;;42.03;30.63;;;1.70;99.90;;;;;;4997126;28;20028;-86
2023/12/06 03:55:54;;;;;;;47.22;31.08;;;2.00;99.90;;;;;;4998427;28;20503;-86
2023/12/06 03:58:22;;;;;;;41.90;30.08;;;2.00;99.90;;;;;;5000296;28;20041;-86
2023/12/06 04:00:47;;;;;;;48.05;31.30;;;2.00;99.90;;;;;;5014597;28;20042;-86
2023/12/06 04:03:14;;;;;;;46.53;32.28;;;1.90;99.90;;;;;;4993379;28;20050;-87
2023/12/06 04:05:43;;;;;;;44.45;31.25;;;1.80;99.90;;;;;;5015785;28;20049;-87
2023/12/06 04:08:10;;;;;;;45.63;31.55;;;2.00;99.90;;;;;;5030263;28;20038;-87
2023/12/06 04:10:36;;;;;;;45.97;31.52;;;2.00;99.90;;;;;;4994094;28;20068;-85
2023/12/06 04:13:04;;;;;;;44.45;31.75;;;1.80;99.90;;;;;;4996054;28;20033;-87
2023/12/06 04:15:30;;;;;;;43.83;31.40;;;1.90;99.90;;;;;;4998710;28;20045;-86
2023/12/06 04:17:56;;;;;;;42.72;30.50;;;2.10;99.90;;;;;;5011299;28;20042;-86
2023/12/06 04:20:22;;;;;;;43.67;30.30;;;2.00;99.90;;;;;;5008195;28;20045;-87
2023/12/06 04:22:48;;;;;;;43.15;29.90;;;2.00;99.90;;;;;;5011866;28;20057;-87
2023/12/06 04:25:16;;;;;;;40.55;28.00;;;2.00;99.90;;;;;;4993016;28;20342;-86
2023/12/06 04:27:42;;;;;;;36.28;26.63;;;2.00;99.90;;;;;;5004390;28;20041;-87
2023/12/06 04:30:10;;;;;;;37.60;27.45;;;2.00;99.90;;;;;;5030540;28;20464;-86
2023/12/06 04:32:36;;;;;;;37.72;26.58;;;1.90;99.90;;;;;;5030789;28;20509;-87
2023/12/06 04:35:02;;;;;;;37.13;26.75;;;1.90;99.90;;;;;;5000774;28;20046;-87
2023/12/06 04:37:28;;;;;;;36.92;27.02;;;2.10;99.90;;;;;;5004037;28;20050;-86
2023/12/06 04:39:54;;;;;;;37.80;26.05;;;2.10;99.90;;;;;;5014414;28;20375;-87
2023/12/06 04:42:20;;;;;;;37.00;25.73;;;1.80;99.90;;;;;;5003763;28;20053;-86
2023/12/06 04:44:46;;;;;;;37.45;27.10;;;2.10;99.90;;;;;;5003784;28;20041;-86
2023/12/06 04:47:12;;;;;;;35.10;26.75;;;2.10;99.90;;;;;;5000837;28;20033;-88
2023/12/06 04:49:37;;;;;;;36.15;26.65;;;1.80;99.90;;;;;;4998629;28;20099;-87
2023/12/06 04:52:04;;;;;;;37.92;27.65;;;1.90;99.90;;;;;;5001494;28;20041;-87
2023/12/06 04:54:29;;;;;;;37.38;27.00;;;2.10;99.90;;;;;;5004899;28;20099;-87
2023/12/06 04:56:55;;;;;;;34.33;26.25;;;2.10;99.90;;;;;;5002386;28;20506;-88
2023/12/06 04:59:21;;;;;;;42.15;29.05;;;2.10;99.90;;;;;;4992511;28;20174;-87
2023/12/06 05:01:47;;;;;;;38.25;27.00;;;1.90;99.90;;;;;;5001010;28;20149;-87
2023/12/06 05:04:13;;;;;;;35.40;27.60;;;1.80;99.90;;;;;;5001683;28;20129;-87
2023/12/06 05:06:40;;;;;;;36.42;27.00;;;2.00;99.90;;;;;;5000348;28;20640;-87
2023/12/06 05:09:07;;;;;;;37.75;27.60;;;2.00;99.90;;;;;;5000304;28;20120;-87
2023/12/06 05:11:33;;;;;;;40.42;28.35;;;2.20;99.90;;;;;;4992611;28;20088;-87
2023/12/06 05:13:58;;;;;;;37.05;27.20;;;1.90;99.90;;;;;;5005047;28;20088;-88
2023/12/06 05:16:27;;;;;;;36.15;27.08;;;2.10;99.90;;;;;;4993930;28;20369;-88
2023/12/06 05:18:52;;;;;;;36.08;27.55;;;2.20;99.90;;;;;;4999663;28;20120;-87
2023/12/06 05:21:21;;;;;;;40.28;29.17;;;2.20;99.90;;;;;;5013748;28;20141;-87
2023/12/06 05:23:48;;;;;;;40.25;28.58;;;1.90;99.90;;;;;;5050420;28;20076;-87
2023/12/06 05:26:14;;;;;;;37.15;28.60;;;2.20;99.90;;;;;;4996775;28;20029;-87
2023/12/06 05:28:39;;;;;;;37.10;27.85;;;2.20;99.90;;;;;;5010385;28;20102;-87
2023/12/06 05:31:05;;;;;;;43.40;28.80;;;2.00;99.90;;;;;;5030105;28;20112;-87
2023/12/06 05:33:31;;;;;;;37.58;28.52;;;2.10;99.90;;;;;;5003340;28;20108;-87
2023/12/06 05:35:57;;;;;;;38.88;28.30;;;1.90;99.90;;;;;;5010055;28;20116;-87
2023/12/06 05:38:22;;;;;;;40.20;29.50;;;1.90;99.90;;;;;;4998126;28;20073;-87
2023/12/06 05:40:49;;;;;;;42.38;28.75;;;1.90;99.90;;;;;;5002715;28;20038;-86
2023/12/06 05:43:15;;;;;;;38.88;29.05;;;2.00;99.90;;;;;;5036336;28;20054;-87
2023/12/06 05:45:41;;;;;;;40.72;29.33;;;2.00;99.90;;;;;;5012078;28;20052;-88
2023/12/06 05:48:07;;;;;;;39.30;28.27;;;2.00;99.90;;;;;;4997783;28;20108;-87
2023/12/06 05:50:32;;;;;;;39.00;29.67;;;2.10;99.90;;;;;;5011492;28;20066;-87
2023/12/06 05:52:58;;;;;;;41.22;28.65;;;2.10;99.90;;;;;;5002109;28;20449;-87
2023/12/06 05:55:24;;;;;;;40.88;28.63;;;2.20;99.90;;;;;;4997547;28;20052;-86
2023/12/06 05:57:50;;;;;;;41.83;28.90;;;2.00;99.90;;;;;;4996804;28;20508;-87
2023/12/06 06:00:17;;;;;;;40.97;28.42;;;2.00;99.90;;;;;;4999460;28;20037;-87
2023/12/06 06:02:43;;;;;;;39.45;27.92;;;2.10;99.90;;;;;;5001847;28;20485;-87
2023/12/06 06:05:10;;;;;;;40.25;29.00;;;2.20;99.90;;;;;;5013124;28;20357;-87
2023/12/06 06:07:36;;;;;;;37.03;28.15;;;2.10;99.90;;;;;;4997736;28;20140;-87
2023/12/06 06:10:05;;;;;;;39.30;28.30;;;1.90;99.90;;;;;;4996913;28;20445;-87
2023/12/06 06:12:31;;;;;;;39.67;28.10;;;1.90;99.90;;;;;;5024019;28;20049;-87
2023/12/06 06:14:56;;;;;;;39.47;28.33;;;2.00;99.90;;;;;;4997302;28;20049;-87
2023/12/06 06:17:23;;;;;;;38.80;28.35;;;2.10;99.90;;;;;;5010931;28;20143;-87
2023/12/06 06:19:48;;;;;;;38.00;27.60;;;2.20;99.90;;;;;;5010461;28;20458;-87
2023/12/06 06:22:14;;;;;;;39.28;27.20;;;2.10;99.90;;;;;;5027121;28;20065;-87
2023/12/06 06:24:40;;;;;;;39.25;28.05;;;2.20;99.90;;;;;;5006704;28;20320;-87
2023/12/06 06:27:06;;;;;;;37.17;26.73;;;2.10;99.90;;;;;;5008931;28;20026;-87
2023/12/06 06:29:32;;;;;;;38.97;26.55;;;2.10;99.90;;;;;;5013977;28;20500;-87
2023/12/06 06:31:57;;;;;;;36.67;27.58;;;2.20;99.90;;;;;;5010279;28;20050;-87
2023/12/06 06:34:23;;;;;;;36.85;27.58;;;2.20;99.90;;;;;;5013265;28;20045;-87
2023/12/06 06:36:49;;;;;;;39.17;26.92;;;2.30;99.90;;;;;;5000805;28;20456;-86
2023/12/06 06:39:15;;;;;;;36.67;26.90;;;2.00;99.90;;;;;;5001045;28;20099;-87
2023/12/06 06:41:41;;;;;;;33.55;25.73;;;2.30;99.90;;;;;;4997172;28;20434;-86
2023/12/06 06:44:06;;;;;;;36.10;26.77;;;2.10;99.90;;;;;;5004244;28;20240;-87
2023/12/06 06:46:32;;;;;;;31.83;25.27;;;2.30;99.90;;;;;;5010052;28;20052;-87
2023/12/06 06:48:58;;;;;;;38.47;26.92;;;2.20;99.90;;;;;;5000681;28;20632;-87
2023/12/06 06:51:35;;;;;;;34.05;26.02;;;2.30;99.90;;;;;;4997506;28;20397;-87
2023/12/06 06:54:04;;;;;;;37.78;25.55;;;2.30;99.90;;;;;;4993938;28;20397;-86
2023/12/06 06:56:29;;;;;;;36.60;27.05;;;2.20;99.90;;;;;;5030603;28;20037;-87
2023/12/06 06:58:55;;;;;;;36.53;26.42;;;2.40;99.90;;;;;;4994885;28;20126;-87
2023/12/06 07:01:21;;;;;;;31.92;24.80;;;2.40;99.90;;;;;;4997856;28;20532;-87
2023/12/06 07:03:47;;;;;;;36.38;26.83;;;2.40;99.90;;;;;;4994621;28;20397;-87
2023/12/06 07:06:13;;;;;;;36.63;26.98;;;2.20;99.90;;;;;;4998519;28;20042;-86
2023/12/06 07:08:40;;;;;;;36.25;25.55;;;2.20;99.90;;;;;;5010078;28;20041;-86
2023/12/06 07:11:06;;;;;;;35.33;26.08;;;2.20;99.90;;;;;;4996244;28;20038;-87
2023/12/06 07:13:34;;;;;;;36.67;26.58;;;2.30;99.90;;;;;;4997615;28;20308;-86
2023/12/06 07:16:00;;;;;;;34.60;26.08;;;2.30;99.90;;;;;;4995104;28;20049;-86
2023/12/06 07:18:27;;;;;;;37.33;26.38;;;2.40;99.90;;;;;;5011809;28;20063;-85
2023/12/06 07:20:52;;;;;;;34.30;25.92;;;2.40;99.90;;;;;;4991944;28;20507;-85
2023/12/06 07:23:18;;;;;;;37.97;25.20;;;2.50;99.90;;;;;;5029718;28;20076;-87
2023/12/06 07:25:45;;;;;;;36.33;25.92;;;2.30;99.90;;;;;;5003662;28;20059;-85
2023/12/06 07:28:12;;;;;;;36.53;25.77;;;2.50;99.90;;;;;;5024600;28;20025;-86
2023/12/06 07:30:37;;;;;;;33.92;25.35;;;2.50;99.90;;;;;;5012021;28;20138;-85
2023/12/06 07:33:03;;;;;;;35.25;25.30;;;2.30;99.90;;;;;;4990373;28;20268;-85
2023/12/06 07:35:29;;;;;;;33.30;25.23;;;2.30;99.90;;;;;;4997820;28;20052;-86
2023/12/06 07:37:55;;;;;;;30.77;24.42;;;2.50;99.90;;;;;;5013119;28;20060;-85
2023/12/06 07:40:21;;;;;;;32.80;24.60;;;2.30;99.90;;;;;;5001105;28;20050;-86
2023/12/06 07:42:48;;;;;;;31.80;25.38;;;2.50;99.90;;;;;;5011542;28;20102;-86
2023/12/06 07:45:14;;;;;;;33.75;25.20;;;2.30;99.90;;;;;;5000117;28;20477;-86
2023/12/06 07:47:40;;;;;;;33.20;25.05;;;2.40;99.90;;;;;;5000353;28;20044;-86
2023/12/06 07:50:07;;;;;;;35.05;25.10;;;2.40;99.90;;;;;;5011035;28;20192;-87
2023/12/06 07:52:33;;;;;;;34.40;25.35;;;2.60;99.90;;;;;;5028667;28;20311;-87
2023/12/06 07:55:00;;;;;;;34.00;24.98;;;2.60;99.90;;;;;;4998116;28;20344;-85
2023/12/06 07:57:28;;;;;;;33.78;25.00;;;2.60;99.90;;;;;;4999183;28;20054;-87
2023/12/06 07:59:55;;;;;;;32.20;24.50;;;2.40;99.90;;;;;;5007481;28;20061;-86
2023/12/06 08:02:22;;;;;;;31.42;24.17;;;2.40;99.90;;;;;;5008147;28;20393;-87
2023/12/06 08:04:47;;;;;;;32.08;24.65;;;2.40;99.90;;;;;;5010974;28;20103;-86
2023/12/06 08:07:13;;;;;;;29.58;24.20;;;2.50;99.90;;;;;;5004386;28;20503;-87
2023/12/06 08:09:39;;;;;;;30.67;23.55;;;2.50;99.90;;;;;;4996377;28;20072;-86
2023/12/06 08:12:07;;;;;;;30.35;24.13;;;2.60;99.90;;;;;;5000528;28;20537;-86
2023/12/06 08:14:32;;;;;;;34.20;24.27;;;2.70;99.90;;;;;;5005321;28;20121;-88
2023/12/06 08:16:58;;;;;;;33.53;25.20;;;2.50;99.90;;;;;;4995543;28;20520;-88
2023/12/06 08:19:24;;;;;;;29.40;23.95;;;2.80;99.90;;;;;;5004209;28;20045;-87
2023/12/06 08:21:49;;;;;;;31.27;24.65;;;2.70;99.90;;;;;;5013209;28;20425;-88
2023/12/06 08:24:16;;;;;;;32.38;23.25;;;2.80;99.90;;;;;;5014495;28;20042;-88
2023/12/06 08:26:42;;;;;;;29.83;24.33;;;2.50;99.90;;;;;;5004688;28;20381;-88
2023/12/06 08:29:09;;;;;;;31.13;24.23;;;2.70;99.90;;;;;;5034036;28;20046;-88
2023/12/06 08:31:36;;;;;;;33.15;23.60;;;2.60;99.90;;;;;;5002776;28;20397;-88
2023/12/06 08:34:02;;;;;;;31.90;23.90;;;2.80;99.90;;;;;;5006182;28;20255;-87
2023/12/06 08:36:28;;;;;;;34.88;24.13;;;2.70;99.90;;;;;;5010952;28;20512;-87
2023/12/06 08:38:53;;;;;;;33.83;24.20;;;2.60;99.90;;;;;;5013906;28;20128;-88
2023/12/06 08:41:20;;;;;;;36.75;24.27;;;2.90;99.90;;;;;;4992366;28;20552;-87
2023/12/06 08:43:46;;;;;;;29.88;23.15;;;2.90;99.90;;;;;;5003657;28;20315;-87
2023/12/06 08:46:11;;;;;;;29.92;23.30;;;3.00;99.90;;;;;;4999530;28;20521;-88
2023/12/06 08:48:37;;;;;;;30.63;22.63;;;3.00;99.90;;;;;;4998736;28;20041;-88
2023/12/06 08:51:03;;;;;;;29.48;23.77;;;3.00;99.90;;;;;;5005514;28;20034;-87
2023/12/06 08:53:29;;;;;;;30.08;23.42;;;3.00;99.90;;;;;;5006314;28;20116;-88
2023/12/06 08:55:56;;;;;;;27.25;22.70;;;3.00;99.90;;;;;;4999656;28;20124;-88
2023/12/06 08:58:22;;;;;;;31.45;23.00;;;3.10;99.90;;;;;;4999503;28;20042;-88
2023/12/06 09:00:48;;;;;;;27.33;22.15;;;3.00;99.90;;;;;;4998692;28;20041;-88
2023/12/06 09:03:14;;;;;;;28.73;23.08;;;3.10;99.90;;;;;;4999020;28;20033;-88
2023/12/06 09:05:40;;;;;;;29.88;21.83;;;2.90;99.90;;;;;;4998818;28;20505;-88
2023/12/06 09:08:06;;;;;;;28.58;22.33;;;2.90;99.90;;;;;;5016556;28;20099;-88
2023/12/06 09:10:38;;;;;;;27.50;22.65;;;3.00;99.90;;;;;;4997921;28;20038;-89
2023/12/06 09:13:04;;;;;;;27.17;22.20;;;3.00;99.90;;;;;;5016441;28;20473;-88
2023/12/06 09:15:30;;;;;;;28.30;21.95;;;3.10;99.90;;;;;;5013242;28;20037;-88
2023/12/06 09:17:55;;;;;;;34.00;22.13;;;3.00;99.90;;;;;;5003450;28;20311;-88
2023/12/06 09:20:21;;;;;;;33.15;22.13;;;3.20;99.90;;;;;;5012155;28;20607;-89
2023/12/06 09:22:47;;;;;;;27.35;21.08;;;3.20;99.90;;;;;;4992013;28;20137;-88
2023/12/06 09:25:13;;;;;;;28.45;21.38;;;3.10;99.90;;;;;;4997520;28;20044;-88
2023/12/06 09:27:38;;;;;;;29.55;22.77;;;3.40;99.90;;;;;;5028004;28;20576;-88
2023/12/06 09:30:05;;;;;;;33.22;23.33;;;3.20;99.90;;;;;;5001825;28;20124;-89
2023/12/06 09:32:31;;;;;;;27.20;20.90;;;3.10;99.90;;;;;;4999327;28;20253;-88
2023/12/06 09:34:57;;;;;;;27.98;21.70;;;3.20;99.90;;;;;;5031050;28;20041;-89
2023/12/06 09:37:22;;;;;;;28.02;21.95;;;3.40;99.90;;;;;;5028184;28;20096;-88
2023/12/06 09:39:49;;;;;;;29.02;21.70;;;3.10;99.90;;;;;;5012635;28;20497;-88
2023/12/06 09:42:15;;;;;;;29.20;20.88;;;3.10;99.90;;;;;;4999018;28;20111;-89
2023/12/06 09:44:45;;;;;;;29.10;20.17;;;3.20;99.90;;;;;;5016012;28;20049;-89
2023/12/06 09:47:12;;;;;;;25.27;20.55;;;3.40;99.90;;;;;;5001514;28;20160;-88
2023/12/06 09:49:38;;;;;;;30.50;21.33;;;3.10;99.90;;;;;;5002554;28;20042;-88
2023/12/06 09:52:33;;;;;;;27.58;20.65;;;3.10;99.90;;;;;;4998515;28;20049;-88
2023/12/06 09:55:00;;;;;;;28.10;20.52;;;3.20;99.90;;;;;;5001742;28;20390;-89
2023/12/06 09:57:26;;;;;;;24.35;19.92;;;3.10;99.90;;;;;;4996870;28;20038;-88
2023/12/06 09:59:51;;;;;;;26.08;20.08;;;3.20;99.90;;;;;;4995743;28;20238;-88
2023/12/06 10:02:17;;;;;;;28.15;20.10;;;3.10;99.90;;;;;;5014088;28;20042;-88
2023/12/06 10:04:43;;;;;;;24.80;19.15;;;3.30;99.90;;;;;;4999311;28;20038;-88
2023/12/06 10:07:10;;;;;;;26.13;20.00;;;3.50;99.90;;;;;;5000604;28;20069;-88
2023/12/06 10:09:35;;;;;;;23.48;19.58;;;3.40;99.90;;;;;;5030111;28;20336;-87
2023/12/06 10:12:08;;;;;;;25.27;20.00;;;3.30;99.90;;;;;;4996511;28;20046;-88
2023/12/06 10:14:35;;;;;;;27.05;19.52;;;3.40;99.90;;;;;;5034099;28;20049;-88
2023/12/06 10:17:01;;;;;;;24.58;18.38;;;3.60;99.90;;;;;;5015800;28;20041;-88
2023/12/06 10:19:28;;;;;;;25.33;18.90;;;3.40;99.90;;;;;;5012842;28;20053;-88
2023/12/06 10:21:56;;;;;;;23.02;17.58;;;3.40;99.90;;;;;;5004977;28;20083;-88
2023/12/06 10:24:22;;;;;;;20.40;17.60;;;3.40;99.90;;;;;;4998765;28;20038;-88
2023/12/06 10:26:49;;;;;;;24.63;18.27;;;3.60;99.90;;;;;;4998048;28;20045;-88
2023/12/06 10:29:15;;;;;;;24.50;18.30;;;3.60;99.90;;;;;;5001192;28;20631;-87
2023/12/06 10:31:42;;;;;;;21.08;17.25;;;3.40;99.90;;;;;;5007749;28;20438;-88
2023/12/06 10:34:09;;;;;;;20.27;16.92;;;3.60;99.90;;;;;;4997040;28;20045;-87
2023/12/06 10:36:40;;;;;;;22.83;16.30;;;3.40;99.90;;;;;;5040834;28;20103;-88
2023/12/06 10:39:10;;;;;;;20.15;16.52;;;3.40;99.90;;;;;;4993067;28;20065;-88
2023/12/06 10:41:41;;;;;;;21.40;16.75;;;3.60;99.90;;;;;;4996378;28;20050;-88
2023/12/06 10:44:09;;;;;;;22.88;16.52;;;3.60;99.90;;;;;;5030329;28;20121;-88
2023/12/06 10:46:36;;;;;;;22.75;15.88;;;3.70;99.90;;;;;;5002639;28;20397;-88
2023/12/06 10:49:03;;;;;;;21.45;16.63;;;3.60;99.90;;;;;;5008340;28;20034;-88
2023/12/06 10:51:35;;;;;;;20.65;16.17;;;3.80;99.90;;;;;;5000859;28;20037;-88
2023/12/06 10:54:01;;;;;;;20.20;16.52;;;3.70;99.90;;;;;;5011546;28;20057;-88
2023/12/06 10:56:28;;;;;;;18.45;15.82;;;3.80;99.90;;;;;;5021909;28;20148;-88
2023/12/06 10:58:59;;;;;;;18.45;14.98;;;3.70;99.90;;;;;;5010118;28;20042;-88
2023/12/06 11:01:25;;;;;;;18.48;15.57;;;3.90;99.90;;;;;;5008954;28;20050;-87
2023/12/06 11:03:52;;;;;;;18.15;16.15;;;3.90;99.90;;;;;;5000258;28;20049;-87
2023/12/06 11:06:31;;;;;;;19.70;15.15;;;3.80;99.90;;;;;;4999979;28;20115;-87
2023/12/06 11:09:00;;;;;;;21.20;15.90;;;3.90;99.90;;;;;;5001217;28;20053;-87
2023/12/06 11:11:38;;;;;;;19.52;16.42;;;4.00;99.90;;;;;;4996670;28;20046;-87
2023/12/06 11:14:10;;;;;;;22.30;16.90;;;4.10;99.90;;;;;;5026490;28;20489;-86
2023/12/06 11:17:04;;;;;;;22.50;16.52;;;3.90;99.90;;;;;;5005818;28;20053;-87
2023/12/06 11:19:31;;;;;;;20.75;15.25;;;4.10;99.90;;;;;;5013104;28;20428;-87
2023/12/06 11:21:57;;;;;;;19.58;15.57;;;4.00;99.90;;;;;;4995860;28;20058;-87
2023/12/06 11:24:23;;;;;;;19.60;14.68;;;4.00;99.90;;;;;;5010316;28;20401;-87
2023/12/06 11:26:50;;;;;;;17.50;14.80;;;4.10;99.90;;;;;;5000780;28;20132;-87
2023/12/06 11:29:17;;;;;;;18.55;15.15;;;4.00;99.90;;;;;;5010311;28;20058;-88
2023/12/06 11:31:43;;;;;;;20.30;14.65;;;4.00;99.90;;;;;;4998931;28;20490;-88
2023/12/06 11:34:09;;;;;;;18.95;14.60;;;3.80;99.90;;;;;;4994894;28;20048;-88
2023/12/06 11:36:37;;;;;;;16.90;14.00;;;3.80;99.90;;;;;;5011956;28;20160;-88
2023/12/06 11:39:21;;;;;;;17.20;14.13;;;3.90;99.90;;;;;;4999784;28;20047;-87
2023/12/06 11:41:54;;;;;;;17.42;14.50;;;4.10;99.90;;;;;;5030879;28;20049;-87
2023/12/06 11:44:20;;;;;;;17.75;14.43;;;4.10;99.90;;;;;;5017946;28;20100;-87
2023/12/06 11:46:50;;;;;;;19.42;14.95;;;4.00;99.90;;;;;;5000219;28;20034;-87
2023/12/06 11:49:17;;;;;;;19.13;14.80;;;4.00;99.90;;;;;;5027737;28;20444;-87
2023/12/06 11:51:43;;;;;;;19.83;15.60;;;4.00;99.90;;;;;;5002918;28;20385;-88
2023/12/06 11:54:09;;;;;;;19.73;15.35;;;4.00;99.90;;;;;;5003491;28;20048;-88
2023/12/06 11:56:35;;;;;;;19.25;15.90;;;4.00;99.90;;;;;;5002481;28;20050;-87
2023/12/06 11:59:02;;;;;;;20.85;15.57;;;3.90;99.90;;;;;;5011761;28;20045;-87
2023/12/06 12:01:29;;;;;;;17.58;15.35;;;3.80;99.90;;;;;;5030267;28;20139;-88
2023/12/06 12:03:59;;;;;;;16.77;14.48;;;4.00;99.90;;;;;;5013136;28;20042;-87
2023/12/06 12:06:27;;;;;;;15.95;13.48;;;4.00;99.90;;;;;;5034378;28;20073;-87
2023/12/06 12:08:53;;;;;;;17.08;13.82;;;3.90;99.90;;;;;;4998322;28;20507;-87
2023/12/06 12:11:19;;;;;;;17.42;13.93;;;4.00;99.90;;;;;;4999691;28;20093;-88
2023/12/06 12:13:47;;;;;;;16.55;14.02;;;3.90;99.90;;;;;;4996609;28;20088;-87
2023/12/06 12:16:15;;;;;;;16.05;13.25;;;4.00;99.90;;;;;;4999982;28;20037;-88
2023/12/06 12:18:41;;;;;;;16.38;13.88;;;3.80;99.90;;;;;;4998758;28;20095;-87
2023/12/06 12:21:11;;;;;;;16.23;12.98;;;3.90;99.90;;;;;;5011975;28;20045;-87
2023/12/06 12:23:36;;;;;;;19.83;13.40;;;4.00;99.90;;;;;;4994459;28;20492;-88
2023/12/06 12:26:02;;;;;;;15.43;13.25;;;3.90;99.90;;;;;;4999904;28;20073;-87
2023/12/06 12:28:29;;;;;;;17.67;13.07;;;4.00;99.90;;;;;;5045310;28;20080;-87
2023/12/06 12:31:06;;;;;;;15.93;12.80;;;3.80;99.90;;;;;;4996432;28;20280;-88
2023/12/06 12:33:32;;;;;;;16.17;13.23;;;3.90;99.90;;;;;;5014514;28;20050;-87